Postoak, Texas
Current Conditions -  °F | °C
As of 8:35 PM on Wednesday 26 Nov 2014 (Local Time) from K0F2 Reporting Station
Clear Clear  
Wind Chill: 44°   Ceiling: Unl
Heat Index: 46°   Visibility: 10mi
Dew Point: 34°   Wind: 5mph
Humidity: 62%   Direction: 350°N
Pressure: 30.36"   Gusts: NA
Location:  33.5529°N, 97.8448°W
Report Text: K0F2 270235Z AUTO 35004KT 10SM CLR 08/01 A3036 RMK AO2 T00770009
Loading
Personal Weather Stations






























Interactive Weather Map New forecast layout! Learn more

10-Day Weather Forecast

Advertisements
Track Severe Weather on mobile